sensor_id;sensor_type;location;lat;lon;timestamp;P1;durP1;ratioP1;P2;durP2;ratioP2
62463;SDS011;48512;48.552;9.380;2023-07-02T00:01:46;3.88;;;2.75;;
62463;SDS011;48512;48.552;9.380;2023-07-02T00:04:13;4.30;;;3.05;;
62463;SDS011;48512;48.552;9.380;2023-07-02T00:06:42;4.53;;;2.70;;
62463;SDS011;48512;48.552;9.380;2023-07-02T00:09:12;7.28;;;3.25;;
62463;SDS011;48512;48.552;9.380;2023-07-02T00:11:39;5.65;;;2.70;;
62463;SDS011;48512;48.552;9.380;2023-07-02T00:14:06;4.93;;;3.38;;
62463;SDS011;48512;48.552;9.380;2023-07-02T00:16:33;4.10;;;2.95;;
62463;SDS011;48512;48.552;9.380;2023-07-02T00:18:59;5.40;;;2.90;;
62463;SDS011;48512;48.552;9.380;2023-07-02T00:21:28;6.85;;;3.80;;
62463;SDS011;48512;48.552;9.380;2023-07-02T00:23:54;6.65;;;3.75;;
62463;SDS011;48512;48.552;9.380;2023-07-02T00:26:24;7.38;;;3.75;;
62463;SDS011;48512;48.552;9.380;2023-07-02T00:28:52;5.68;;;3.85;;
62463;SDS011;48512;48.552;9.380;2023-07-02T00:31:20;6.57;;;3.67;;
62463;SDS011;48512;48.552;9.380;2023-07-02T00:33:46;5.70;;;3.38;;
62463;SDS011;48512;48.552;9.380;2023-07-02T00:36:12;5.70;;;4.13;;
62463;SDS011;48512;48.552;9.380;2023-07-02T00:38:44;6.93;;;4.05;;
62463;SDS011;48512;48.552;9.380;2023-07-02T00:41:11;5.53;;;3.67;;
62463;SDS011;48512;48.552;9.380;2023-07-02T00:43:37;6.18;;;3.88;;
62463;SDS011;48512;48.552;9.380;2023-07-02T00:48:48;6.57;;;3.73;;
62463;SDS011;48512;48.552;9.380;2023-07-02T00:51:17;5.33;;;3.67;;
62463;SDS011;48512;48.552;9.380;2023-07-02T00:53:46;5.72;;;3.53;;
62463;SDS011;48512;48.552;9.380;2023-07-02T00:56:14;7.32;;;3.85;;
62463;SDS011;48512;48.552;9.380;2023-07-02T00:58:42;9.52;;;5.05;;
62463;SDS011;48512;48.552;9.380;2023-07-02T01:01:15;5.80;;;3.67;;
62463;SDS011;48512;48.552;9.380;2023-07-02T01:03:59;9.10;;;4.60;;
62463;SDS011;48512;48.552;9.380;2023-07-02T01:06:30;6.25;;;3.80;;
62463;SDS011;48512;48.552;9.380;2023-07-02T01:09:06;8.55;;;3.75;;
62463;SDS011;48512;48.552;9.380;2023-07-02T01:11:43;5.97;;;3.83;;
62463;SDS011;48512;48.552;9.380;2023-07-02T01:14:22;5.85;;;3.58;;
62463;SDS011;48512;48.552;9.380;2023-07-02T01:16:52;6.53;;;3.97;;
62463;SDS011;48512;48.552;9.380;2023-07-02T01:22:01;8.07;;;4.45;;
62463;SDS011;48512;48.552;9.380;2023-07-02T01:24:28;5.60;;;4.13;;
62463;SDS011;48512;48.552;9.380;2023-07-02T01:26:54;6.40;;;4.40;;
62463;SDS011;48512;48.552;9.380;2023-07-02T01:29:22;7.68;;;4.10;;
62463;SDS011;48512;48.552;9.380;2023-07-02T01:31:48;8.93;;;4.15;;
62463;SDS011;48512;48.552;9.380;2023-07-02T01:34:14;6.00;;;4.25;;
62463;SDS011;48512;48.552;9.380;2023-07-02T01:36:41;8.25;;;4.05;;
62463;SDS011;48512;48.552;9.380;2023-07-02T01:39:07;9.25;;;4.15;;
62463;SDS011;48512;48.552;9.380;2023-07-02T01:41:43;6.97;;;4.55;;
62463;SDS011;48512;48.552;9.380;2023-07-02T01:44:11;7.93;;;4.80;;
62463;SDS011;48512;48.552;9.380;2023-07-02T01:46:37;6.50;;;3.97;;
62463;SDS011;48512;48.552;9.380;2023-07-02T01:49:03;7.13;;;3.83;;
62463;SDS011;48512;48.552;9.380;2023-07-02T01:51:29;7.53;;;4.30;;
62463;SDS011;48512;48.552;9.380;2023-07-02T01:53:55;8.23;;;4.20;;
62463;SDS011;48512;48.552;9.380;2023-07-02T01:56:21;8.75;;;4.30;;
62463;SDS011;48512;48.552;9.380;2023-07-02T01:58:47;5.95;;;4.20;;
62463;SDS011;48512;48.552;9.380;2023-07-02T02:01:14;7.80;;;4.38;;
62463;SDS011;48512;48.552;9.380;2023-07-02T02:03:40;7.25;;;4.45;;
62463;SDS011;48512;48.552;9.380;2023-07-02T02:06:06;8.07;;;4.50;;
62463;SDS011;48512;48.552;9.380;2023-07-02T02:08:32;7.10;;;4.38;;
62463;SDS011;48512;48.552;9.380;2023-07-02T02:10:58;7.72;;;4.43;;
62463;SDS011;48512;48.552;9.380;2023-07-02T02:13:26;6.78;;;4.40;;
62463;SDS011;48512;48.552;9.380;2023-07-02T02:15:53;8.13;;;4.80;;
62463;SDS011;48512;48.552;9.380;2023-07-02T02:18:19;6.10;;;4.45;;
62463;SDS011;48512;48.552;9.380;2023-07-02T02:20:46;7.35;;;4.45;;
62463;SDS011;48512;48.552;9.380;2023-07-02T02:23:12;7.93;;;4.35;;
62463;SDS011;48512;48.552;9.380;2023-07-02T02:25:38;7.15;;;4.38;;
62463;SDS011;48512;48.552;9.380;2023-07-02T02:28:04;7.35;;;4.50;;
62463;SDS011;48512;48.552;9.380;2023-07-02T02:30:30;6.82;;;4.05;;
62463;SDS011;48512;48.552;9.380;2023-07-02T02:32:57;7.05;;;4.63;;
62463;SDS011;48512;48.552;9.380;2023-07-02T02:35:23;7.65;;;4.88;;
62463;SDS011;48512;48.552;9.380;2023-07-02T02:37:50;6.95;;;5.07;;
62463;SDS011;48512;48.552;9.380;2023-07-02T02:40:17;6.40;;;4.60;;
62463;SDS011;48512;48.552;9.380;2023-07-02T02:42:43;6.88;;;4.50;;
62463;SDS011;48512;48.552;9.380;2023-07-02T02:45:09;6.78;;;4.40;;
62463;SDS011;48512;48.552;9.380;2023-07-02T02:47:35;9.80;;;4.80;;
62463;SDS011;48512;48.552;9.380;2023-07-02T02:50:03;7.60;;;4.72;;
62463;SDS011;48512;48.552;9.380;2023-07-02T02:52:31;8.70;;;5.22;;
62463;SDS011;48512;48.552;9.380;2023-07-02T02:54:57;6.93;;;4.65;;
62463;SDS011;48512;48.552;9.380;2023-07-02T02:57:23;6.82;;;4.65;;
62463;SDS011;48512;48.552;9.380;2023-07-02T02:59:49;6.72;;;4.85;;
62463;SDS011;48512;48.552;9.380;2023-07-02T03:02:15;9.52;;;4.90;;
62463;SDS011;48512;48.552;9.380;2023-07-02T03:04:41;7.60;;;4.22;;
62463;SDS011;48512;48.552;9.380;2023-07-02T03:07:10;9.60;;;4.78;;
62463;SDS011;48512;48.552;9.380;2023-07-02T03:09:36;7.22;;;4.78;;
62463;SDS011;48512;48.552;9.380;2023-07-02T03:12:02;7.22;;;4.93;;
62463;SDS011;48512;48.552;9.380;2023-07-02T03:14:28;6.55;;;4.85;;
62463;SDS011;48512;48.552;9.380;2023-07-02T03:16:54;6.95;;;4.57;;
62463;SDS011;48512;48.552;9.380;2023-07-02T03:19:21;6.78;;;5.22;;
62463;SDS011;48512;48.552;9.380;2023-07-02T03:21:47;10.52;;;4.65;;
62463;SDS011;48512;48.552;9.380;2023-07-02T03:24:13;8.23;;;4.60;;
62463;SDS011;48512;48.552;9.380;2023-07-02T03:26:39;8.40;;;4.75;;
62463;SDS011;48512;48.552;9.380;2023-07-02T03:29:06;9.45;;;5.35;;
62463;SDS011;48512;48.552;9.380;2023-07-02T03:31:32;7.78;;;5.57;;
62463;SDS011;48512;48.552;9.380;2023-07-02T03:34:01;8.82;;;5.05;;
62463;SDS011;48512;48.552;9.380;2023-07-02T03:36:29;8.85;;;5.22;;
62463;SDS011;48512;48.552;9.380;2023-07-02T03:38:55;9.57;;;5.13;;
62463;SDS011;48512;48.552;9.380;2023-07-02T03:41:21;9.18;;;5.10;;
62463;SDS011;48512;48.552;9.380;2023-07-02T03:43:47;6.90;;;4.72;;
62463;SDS011;48512;48.552;9.380;2023-07-02T03:46:13;6.53;;;4.75;;
62463;SDS011;48512;48.552;9.380;2023-07-02T03:48:40;7.93;;;4.75;;
62463;SDS011;48512;48.552;9.380;2023-07-02T03:51:06;8.93;;;4.90;;
62463;SDS011;48512;48.552;9.380;2023-07-02T03:53:32;10.43;;;5.10;;
62463;SDS011;48512;48.552;9.380;2023-07-02T03:55:58;7.43;;;4.72;;
62463;SDS011;48512;48.552;9.380;2023-07-02T03:58:25;7.85;;;4.88;;
62463;SDS011;48512;48.552;9.380;2023-07-02T04:00:51;7.22;;;5.13;;
62463;SDS011;48512;48.552;9.380;2023-07-02T04:03:17;9.45;;;4.70;;
62463;SDS011;48512;48.552;9.380;2023-07-02T04:05:43;6.65;;;4.82;;
62463;SDS011;48512;48.552;9.380;2023-07-02T04:08:10;8.48;;;5.32;;
62463;SDS011;48512;48.552;9.380;2023-07-02T04:10:36;8.70;;;5.45;;
62463;SDS011;48512;48.552;9.380;2023-07-02T04:13:02;7.38;;;5.07;;
62463;SDS011;48512;48.552;9.380;2023-07-02T04:15:28;8.98;;;5.25;;
62463;SDS011;48512;48.552;9.380;2023-07-02T04:17:54;7.43;;;5.25;;
62463;SDS011;48512;48.552;9.380;2023-07-02T04:20:20;11.05;;;5.72;;
62463;SDS011;48512;48.552;9.380;2023-07-02T04:22:46;7.95;;;4.93;;
62463;SDS011;48512;48.552;9.380;2023-07-02T04:25:13;10.18;;;5.35;;
62463;SDS011;48512;48.552;9.380;2023-07-02T04:27:41;7.78;;;5.07;;
62463;SDS011;48512;48.552;9.380;2023-07-02T04:30:09;7.45;;;5.05;;
62463;SDS011;48512;48.552;9.380;2023-07-02T04:32:36;8.70;;;5.20;;
62463;SDS011;48512;48.552;9.380;2023-07-02T04:35:08;8.05;;;4.93;;
62463;SDS011;48512;48.552;9.380;2023-07-02T04:37:35;8.55;;;5.22;;
62463;SDS011;48512;48.552;9.380;2023-07-02T04:40:01;8.85;;;5.00;;
62463;SDS011;48512;48.552;9.380;2023-07-02T04:42:29;7.97;;;5.40;;
62463;SDS011;48512;48.552;9.380;2023-07-02T04:44:57;8.02;;;4.90;;
62463;SDS011;48512;48.552;9.380;2023-07-02T04:47:31;7.18;;;4.50;;
62463;SDS011;48512;48.552;9.380;2023-07-02T04:49:58;8.07;;;5.13;;
62463;SDS011;48512;48.552;9.380;2023-07-02T04:52:24;6.82;;;4.80;;
62463;SDS011;48512;48.552;9.380;2023-07-02T04:54:50;7.38;;;4.78;;
62463;SDS011;48512;48.552;9.380;2023-07-02T04:57:16;6.78;;;4.68;;
62463;SDS011;48512;48.552;9.380;2023-07-02T04:59:43;5.32;;;4.10;;
62463;SDS011;48512;48.552;9.380;2023-07-02T05:02:09;6.05;;;3.85;;
62463;SDS011;48512;48.552;9.380;2023-07-02T05:04:36;5.57;;;3.40;;
62463;SDS011;48512;48.552;9.380;2023-07-02T05:07:05;4.75;;;3.70;;
62463;SDS011;48512;48.552;9.380;2023-07-02T05:09:31;4.90;;;3.05;;
62463;SDS011;48512;48.552;9.380;2023-07-02T05:11:57;5.70;;;3.22;;
62463;SDS011;48512;48.552;9.380;2023-07-02T05:14:24;4.32;;;3.08;;
62463;SDS011;48512;48.552;9.380;2023-07-02T05:16:50;5.78;;;3.45;;
62463;SDS011;48512;48.552;9.380;2023-07-02T05:19:16;7.60;;;4.68;;
62463;SDS011;48512;48.552;9.380;2023-07-02T05:21:42;5.72;;;3.10;;
62463;SDS011;48512;48.552;9.380;2023-07-02T05:24:08;5.30;;;3.00;;
62463;SDS011;48512;48.552;9.380;2023-07-02T05:26:35;3.85;;;3.05;;
62463;SDS011;48512;48.552;9.380;2023-07-02T05:29:01;3.70;;;2.80;;
62463;SDS011;48512;48.552;9.380;2023-07-02T05:31:27;4.63;;;2.72;;
62463;SDS011;48512;48.552;9.380;2023-07-02T05:33:54;4.70;;;3.67;;
62463;SDS011;48512;48.552;9.380;2023-07-02T05:36:20;6.63;;;3.97;;
62463;SDS011;48512;48.552;9.380;2023-07-02T05:38:47;7.05;;;3.60;;
62463;SDS011;48512;48.552;9.380;2023-07-02T05:41:19;5.13;;;3.67;;
62463;SDS011;48512;48.552;9.380;2023-07-02T05:43:48;5.00;;;3.55;;
62463;SDS011;48512;48.552;9.380;2023-07-02T05:46:14;4.35;;;3.40;;
62463;SDS011;48512;48.552;9.380;2023-07-02T05:48:41;4.18;;;3.50;;
62463;SDS011;48512;48.552;9.380;2023-07-02T05:51:07;9.75;;;5.10;;
62463;SDS011;48512;48.552;9.380;2023-07-02T05:53:34;8.63;;;4.53;;
62463;SDS011;48512;48.552;9.380;2023-07-02T05:56:00;9.77;;;4.40;;
62463;SDS011;48512;48.552;9.380;2023-07-02T05:58:27;8.02;;;4.72;;
62463;SDS011;48512;48.552;9.380;2023-07-02T06:00:53;10.05;;;4.80;;
62463;SDS011;48512;48.552;9.380;2023-07-02T06:03:19;7.50;;;3.88;;
62463;SDS011;48512;48.552;9.380;2023-07-02T06:05:47;8.73;;;4.97;;
62463;SDS011;48512;48.552;9.380;2023-07-02T06:08:17;8.43;;;4.30;;
62463;SDS011;48512;48.552;9.380;2023-07-02T06:10:46;8.02;;;4.35;;
62463;SDS011;48512;48.552;9.380;2023-07-02T06:13:12;11.13;;;4.80;;
62463;SDS011;48512;48.552;9.380;2023-07-02T06:15:39;8.75;;;4.70;;
62463;SDS011;48512;48.552;9.380;2023-07-02T06:18:05;10.45;;;5.07;;
62463;SDS011;48512;48.552;9.380;2023-07-02T06:20:32;12.07;;;5.10;;
62463;SDS011;48512;48.552;9.380;2023-07-02T06:22:58;10.48;;;4.70;;
62463;SDS011;48512;48.552;9.380;2023-07-02T06:25:24;12.15;;;4.70;;
62463;SDS011;48512;48.552;9.380;2023-07-02T06:27:51;10.52;;;4.95;;
62463;SDS011;48512;48.552;9.380;2023-07-02T06:30:18;19.33;;;10.25;;
62463;SDS011;48512;48.552;9.380;2023-07-02T06:32:44;10.68;;;5.82;;
62463;SDS011;48512;48.552;9.380;2023-07-02T06:35:10;10.98;;;5.28;;
62463;SDS011;48512;48.552;9.380;2023-07-02T06:37:36;8.98;;;4.57;;
62463;SDS011;48512;48.552;9.380;2023-07-02T06:40:02;8.43;;;4.55;;
62463;SDS011;48512;48.552;9.380;2023-07-02T06:42:29;11.45;;;4.95;;
62463;SDS011;48512;48.552;9.380;2023-07-02T06:44:55;12.40;;;5.45;;
62463;SDS011;48512;48.552;9.380;2023-07-02T06:47:21;11.15;;;5.22;;
62463;SDS011;48512;48.552;9.380;2023-07-02T06:49:47;9.98;;;5.25;;
62463;SDS011;48512;48.552;9.380;2023-07-02T06:52:13;13.95;;;5.70;;
62463;SDS011;48512;48.552;9.380;2023-07-02T06:54:39;13.98;;;5.93;;
62463;SDS011;48512;48.552;9.380;2023-07-02T06:57:06;10.45;;;5.32;;
62463;SDS011;48512;48.552;9.380;2023-07-02T06:59:32;11.10;;;4.82;;
62463;SDS011;48512;48.552;9.380;2023-07-02T07:01:58;12.13;;;5.88;;
62463;SDS011;48512;48.552;9.380;2023-07-02T07:04:24;10.55;;;4.75;;
62463;SDS011;48512;48.552;9.380;2023-07-02T07:06:50;9.45;;;4.80;;
62463;SDS011;48512;48.552;9.380;2023-07-02T07:09:16;11.27;;;5.13;;
62463;SDS011;48512;48.552;9.380;2023-07-02T07:11:43;9.18;;;5.13;;
62463;SDS011;48512;48.552;9.380;2023-07-02T07:14:09;15.48;;;4.78;;
62463;SDS011;48512;48.552;9.380;2023-07-02T07:16:35;10.75;;;5.75;;
62463;SDS011;48512;48.552;9.380;2023-07-02T07:19:02;14.93;;;5.90;;
62463;SDS011;48512;48.552;9.380;2023-07-02T07:21:28;12.40;;;5.80;;
62463;SDS011;48512;48.552;9.380;2023-07-02T07:23:54;10.35;;;5.90;;
62463;SDS011;48512;48.552;9.380;2023-07-02T07:26:20;14.95;;;7.47;;
62463;SDS011;48512;48.552;9.380;2023-07-02T07:28:46;12.25;;;5.97;;
62463;SDS011;48512;48.552;9.380;2023-07-02T07:31:12;14.95;;;6.80;;
62463;SDS011;48512;48.552;9.380;2023-07-02T07:33:39;25.35;;;7.65;;
62463;SDS011;48512;48.552;9.380;2023-07-02T07:36:05;18.20;;;7.53;;
62463;SDS011;48512;48.552;9.380;2023-07-02T07:38:31;15.82;;;7.13;;
62463;SDS011;48512;48.552;9.380;2023-07-02T07:40:57;16.70;;;7.15;;
62463;SDS011;48512;48.552;9.380;2023-07-02T07:43:23;14.88;;;7.07;;
62463;SDS011;48512;48.552;9.380;2023-07-02T07:45:49;19.88;;;7.88;;
62463;SDS011;48512;48.552;9.380;2023-07-02T07:48:15;15.98;;;7.45;;
62463;SDS011;48512;48.552;9.380;2023-07-02T07:50:41;17.90;;;8.45;;
62463;SDS011;48512;48.552;9.380;2023-07-02T07:53:07;21.80;;;8.90;;
62463;SDS011;48512;48.552;9.380;2023-07-02T07:55:34;25.35;;;9.07;;
62463;SDS011;48512;48.552;9.380;2023-07-02T07:58:00;23.10;;;9.70;;
62463;SDS011;48512;48.552;9.380;2023-07-02T08:00:26;22.75;;;9.65;;
62463;SDS011;48512;48.552;9.380;2023-07-02T08:02:52;23.27;;;9.75;;
62463;SDS011;48512;48.552;9.380;2023-07-02T08:05:21;31.42;;;11.43;;
62463;SDS011;48512;48.552;9.380;2023-07-02T08:07:48;21.38;;;9.73;;
62463;SDS011;48512;48.552;9.380;2023-07-02T08:10:15;27.80;;;11.45;;
62463;SDS011;48512;48.552;9.380;2023-07-02T08:12:41;28.73;;;10.75;;
62463;SDS011;48512;48.552;9.380;2023-07-02T08:15:07;25.77;;;11.27;;
62463;SDS011;48512;48.552;9.380;2023-07-02T08:17:34;27.70;;;13.00;;
62463;SDS011;48512;48.552;9.380;2023-07-02T08:20:00;30.17;;;12.18;;
62463;SDS011;48512;48.552;9.380;2023-07-02T08:22:27;28.52;;;11.63;;
62463;SDS011;48512;48.552;9.380;2023-07-02T08:24:53;34.92;;;11.85;;
62463;SDS011;48512;48.552;9.380;2023-07-02T08:27:20;29.17;;;11.57;;
62463;SDS011;48512;48.552;9.380;2023-07-02T08:29:46;26.80;;;11.40;;
62463;SDS011;48512;48.552;9.380;2023-07-02T08:32:13;26.50;;;11.85;;
62463;SDS011;48512;48.552;9.380;2023-07-02T08:34:39;32.22;;;12.23;;
62463;SDS011;48512;48.552;9.380;2023-07-02T08:37:06;29.48;;;11.80;;
62463;SDS011;48512;48.552;9.380;2023-07-02T08:39:32;31.33;;;12.27;;
62463;SDS011;48512;48.552;9.380;2023-07-02T08:41:58;27.63;;;11.60;;
62463;SDS011;48512;48.552;9.380;2023-07-02T08:44:24;28.45;;;12.23;;
62463;SDS011;48512;48.552;9.380;2023-07-02T08:46:51;32.58;;;13.45;;
62463;SDS011;48512;48.552;9.380;2023-07-02T08:49:20;32.17;;;13.75;;
62463;SDS011;48512;48.552;9.380;2023-07-02T08:51:47;30.90;;;13.45;;
62463;SDS011;48512;48.552;9.380;2023-07-02T08:54:13;30.27;;;12.55;;
62463;SDS011;48512;48.552;9.380;2023-07-02T08:56:40;32.88;;;12.80;;
62463;SDS011;48512;48.552;9.380;2023-07-02T08:59:07;24.77;;;12.13;;
62463;SDS011;48512;48.552;9.380;2023-07-02T09:01:44;29.15;;;12.27;;
62463;SDS011;48512;48.552;9.380;2023-07-02T09:04:17;29.23;;;12.80;;
62463;SDS011;48512;48.552;9.380;2023-07-02T09:06:48;34.38;;;13.52;;
62463;SDS011;48512;48.552;9.380;2023-07-02T09:09:15;35.10;;;13.77;;
62463;SDS011;48512;48.552;9.380;2023-07-02T09:11:48;30.98;;;13.15;;
62463;SDS011;48512;48.552;9.380;2023-07-02T09:14:28;30.42;;;13.65;;
62463;SDS011;48512;48.552;9.380;2023-07-02T09:17:02;33.25;;;13.40;;
62463;SDS011;48512;48.552;9.380;2023-07-02T09:19:29;32.50;;;13.18;;
62463;SDS011;48512;48.552;9.380;2023-07-02T09:21:56;35.53;;;13.00;;
62463;SDS011;48512;48.552;9.380;2023-07-02T09:24:26;32.58;;;13.45;;
62463;SDS011;48512;48.552;9.380;2023-07-02T09:26:56;32.30;;;13.60;;
62463;SDS011;48512;48.552;9.380;2023-07-02T09:29:24;33.30;;;12.90;;
62463;SDS011;48512;48.552;9.380;2023-07-02T09:31:58;32.50;;;13.07;;
62463;SDS011;48512;48.552;9.380;2023-07-02T09:34:33;37.72;;;14.23;;
62463;SDS011;48512;48.552;9.380;2023-07-02T09:37:01;34.75;;;14.02;;
62463;SDS011;48512;48.552;9.380;2023-07-02T09:39:29;33.90;;;13.85;;
62463;SDS011;48512;48.552;9.380;2023-07-02T09:41:57;29.00;;;13.13;;
62463;SDS011;48512;48.552;9.380;2023-07-02T09:44:32;27.45;;;12.32;;
62463;SDS011;48512;48.552;9.380;2023-07-02T09:47:05;31.20;;;14.07;;
62463;SDS011;48512;48.552;9.380;2023-07-02T09:49:36;30.77;;;13.70;;
62463;SDS011;48512;48.552;9.380;2023-07-02T09:52:07;31.90;;;13.38;;
62463;SDS011;48512;48.552;9.380;2023-07-02T09:54:35;32.78;;;14.18;;
62463;SDS011;48512;48.552;9.380;2023-07-02T09:57:02;34.58;;;13.60;;
62463;SDS011;48512;48.552;9.380;2023-07-02T09:59:29;36.75;;;13.55;;
62463;SDS011;48512;48.552;9.380;2023-07-02T10:01:56;36.83;;;14.48;;
62463;SDS011;48512;48.552;9.380;2023-07-02T10:04:23;32.42;;;14.05;;
62463;SDS011;48512;48.552;9.380;2023-07-02T10:06:53;37.03;;;13.95;;
62463;SDS011;48512;48.552;9.380;2023-07-02T10:09:21;43.67;;;15.20;;
62463;SDS011;48512;48.552;9.380;2023-07-02T10:12:00;36.08;;;14.40;;
62463;SDS011;48512;48.552;9.380;2023-07-02T10:14:26;42.00;;;15.95;;
62463;SDS011;48512;48.552;9.380;2023-07-02T10:16:52;40.28;;;15.68;;
62463;SDS011;48512;48.552;9.380;2023-07-02T10:19:20;35.88;;;15.13;;
62463;SDS011;48512;48.552;9.380;2023-07-02T10:21:47;37.70;;;16.30;;
62463;SDS011;48512;48.552;9.380;2023-07-02T10:24:29;37.72;;;17.20;;
62463;SDS011;48512;48.552;9.380;2023-07-02T10:27:00;41.47;;;17.38;;
62463;SDS011;48512;48.552;9.380;2023-07-02T10:29:28;49.67;;;18.85;;
62463;SDS011;48512;48.552;9.380;2023-07-02T10:31:55;44.10;;;18.70;;
62463;SDS011;48512;48.552;9.380;2023-07-02T10:34:29;49.05;;;19.23;;
62463;SDS011;48512;48.552;9.380;2023-07-02T10:36:55;48.58;;;20.77;;
62463;SDS011;48512;48.552;9.380;2023-07-02T10:39:22;47.40;;;19.45;;
62463;SDS011;48512;48.552;9.380;2023-07-02T10:41:48;46.28;;;17.80;;
62463;SDS011;48512;48.552;9.380;2023-07-02T10:44:15;45.63;;;18.90;;
62463;SDS011;48512;48.552;9.380;2023-07-02T10:46:47;48.35;;;16.40;;
62463;SDS011;48512;48.552;9.380;2023-07-02T10:49:16;56.55;;;19.52;;
62463;SDS011;48512;48.552;9.380;2023-07-02T10:51:43;45.33;;;18.90;;
62463;SDS011;48512;48.552;9.380;2023-07-02T10:54:09;54.78;;;20.77;;
62463;SDS011;48512;48.552;9.380;2023-07-02T10:56:36;51.05;;;20.13;;
62463;SDS011;48512;48.552;9.380;2023-07-02T10:59:02;50.60;;;20.10;;
62463;SDS011;48512;48.552;9.380;2023-07-02T11:01:29;49.80;;;20.60;;
62463;SDS011;48512;48.552;9.380;2023-07-02T11:03:57;53.05;;;20.80;;
62463;SDS011;48512;48.552;9.380;2023-07-02T11:06:25;51.55;;;20.25;;
62463;SDS011;48512;48.552;9.380;2023-07-02T11:08:52;55.05;;;20.60;;
62463;SDS011;48512;48.552;9.380;2023-07-02T11:11:21;51.60;;;21.27;;
62463;SDS011;48512;48.552;9.380;2023-07-02T11:13:48;49.00;;;20.33;;
62463;SDS011;48512;48.552;9.380;2023-07-02T11:16:19;55.88;;;22.65;;
62463;SDS011;48512;48.552;9.380;2023-07-02T11:18:48;53.47;;;21.80;;
62463;SDS011;48512;48.552;9.380;2023-07-02T11:21:14;54.20;;;22.65;;
62463;SDS011;48512;48.552;9.380;2023-07-02T11:23:41;55.10;;;22.67;;
62463;SDS011;48512;48.552;9.380;2023-07-02T11:26:07;61.08;;;22.45;;
62463;SDS011;48512;48.552;9.380;2023-07-02T11:28:33;59.63;;;23.63;;
62463;SDS011;48512;48.552;9.380;2023-07-02T11:31:02;57.00;;;23.33;;
62463;SDS011;48512;48.552;9.380;2023-07-02T11:33:39;62.55;;;24.13;;
62463;SDS011;48512;48.552;9.380;2023-07-02T11:36:06;57.47;;;24.33;;
62463;SDS011;48512;48.552;9.380;2023-07-02T11:38:33;56.38;;;24.02;;
62463;SDS011;48512;48.552;9.380;2023-07-02T11:41:04;63.70;;;25.17;;
62463;SDS011;48512;48.552;9.380;2023-07-02T11:43:31;65.65;;;25.85;;
62463;SDS011;48512;48.552;9.380;2023-07-02T11:45:58;71.32;;;25.70;;
62463;SDS011;48512;48.552;9.380;2023-07-02T11:48:24;59.17;;;24.20;;
62463;SDS011;48512;48.552;9.380;2023-07-02T11:50:51;59.88;;;25.48;;
62463;SDS011;48512;48.552;9.380;2023-07-02T11:53:17;67.00;;;26.52;;
62463;SDS011;48512;48.552;9.380;2023-07-02T11:55:43;68.13;;;26.23;;
62463;SDS011;48512;48.552;9.380;2023-07-02T11:58:09;64.78;;;26.45;;
62463;SDS011;48512;48.552;9.380;2023-07-02T12:00:35;63.67;;;27.13;;
62463;SDS011;48512;48.552;9.380;2023-07-02T12:03:01;57.75;;;24.83;;
62463;SDS011;48512;48.552;9.380;2023-07-02T12:05:27;70.22;;;27.77;;
62463;SDS011;48512;48.552;9.380;2023-07-02T12:07:53;61.92;;;26.20;;
62463;SDS011;48512;48.552;9.380;2023-07-02T12:10:20;64.90;;;25.55;;
62463;SDS011;48512;48.552;9.380;2023-07-02T12:12:46;59.85;;;26.73;;
62463;SDS011;48512;48.552;9.380;2023-07-02T12:15:12;62.28;;;25.55;;
62463;SDS011;48512;48.552;9.380;2023-07-02T12:17:38;65.82;;;27.20;;
62463;SDS011;48512;48.552;9.380;2023-07-02T12:20:04;63.33;;;25.33;;
62463;SDS011;48512;48.552;9.380;2023-07-02T12:22:31;64.90;;;25.08;;
62463;SDS011;48512;48.552;9.380;2023-07-02T12:24:57;57.17;;;25.08;;
62463;SDS011;48512;48.552;9.380;2023-07-02T12:27:23;51.88;;;21.88;;
62463;SDS011;48512;48.552;9.380;2023-07-02T12:29:51;52.88;;;22.67;;
62463;SDS011;48512;48.552;9.380;2023-07-02T12:32:17;54.20;;;22.48;;
62463;SDS011;48512;48.552;9.380;2023-07-02T12:34:43;53.10;;;22.27;;
62463;SDS011;48512;48.552;9.380;2023-07-02T12:37:09;53.55;;;22.73;;
62463;SDS011;48512;48.552;9.380;2023-07-02T12:39:35;47.08;;;21.60;;
62463;SDS011;48512;48.552;9.380;2023-07-02T12:42:01;56.28;;;22.90;;
62463;SDS011;48512;48.552;9.380;2023-07-02T12:44:27;49.05;;;21.17;;
62463;SDS011;48512;48.552;9.380;2023-07-02T12:46:53;48.97;;;21.85;;
62463;SDS011;48512;48.552;9.380;2023-07-02T12:49:20;48.35;;;21.67;;
62463;SDS011;48512;48.552;9.380;2023-07-02T12:51:46;49.60;;;21.20;;
62463;SDS011;48512;48.552;9.380;2023-07-02T12:54:12;49.03;;;20.25;;
62463;SDS011;48512;48.552;9.380;2023-07-02T12:56:39;46.70;;;20.17;;
62463;SDS011;48512;48.552;9.380;2023-07-02T12:59:05;45.10;;;20.92;;
62463;SDS011;48512;48.552;9.380;2023-07-02T13:01:31;42.63;;;19.90;;
62463;SDS011;48512;48.552;9.380;2023-07-02T13:03:57;45.90;;;19.50;;
62463;SDS011;48512;48.552;9.380;2023-07-02T13:06:23;46.35;;;20.85;;
62463;SDS011;48512;48.552;9.380;2023-07-02T13:08:50;49.95;;;20.95;;
62463;SDS011;48512;48.552;9.380;2023-07-02T13:11:16;46.22;;;20.98;;
62463;SDS011;48512;48.552;9.380;2023-07-02T13:13:42;45.33;;;21.58;;
62463;SDS011;48512;48.552;9.380;2023-07-02T13:16:08;48.28;;;21.23;;
62463;SDS011;48512;48.552;9.380;2023-07-02T13:18:34;48.28;;;21.42;;
62463;SDS011;48512;48.552;9.380;2023-07-02T13:21:00;50.00;;;21.83;;
62463;SDS011;48512;48.552;9.380;2023-07-02T13:23:26;42.70;;;20.92;;
62463;SDS011;48512;48.552;9.380;2023-07-02T13:25:52;44.83;;;19.52;;
62463;SDS011;48512;48.552;9.380;2023-07-02T13:28:19;42.63;;;19.63;;
62463;SDS011;48512;48.552;9.380;2023-07-02T13:30:46;48.43;;;19.67;;
62463;SDS011;48512;48.552;9.380;2023-07-02T13:33:13;44.72;;;20.67;;
62463;SDS011;48512;48.552;9.380;2023-07-02T13:35:39;46.17;;;20.27;;
62463;SDS011;48512;48.552;9.380;2023-07-02T13:38:05;44.08;;;20.02;;
62463;SDS011;48512;48.552;9.380;2023-07-02T13:40:31;40.53;;;20.05;;
62463;SDS011;48512;48.552;9.380;2023-07-02T13:42:57;42.53;;;19.77;;
62463;SDS011;48512;48.552;9.380;2023-07-02T13:45:23;43.47;;;21.42;;
62463;SDS011;48512;48.552;9.380;2023-07-02T13:47:50;45.58;;;21.45;;
62463;SDS011;48512;48.552;9.380;2023-07-02T13:50:16;43.22;;;20.75;;
62463;SDS011;48512;48.552;9.380;2023-07-02T13:52:42;44.17;;;19.85;;
62463;SDS011;48512;48.552;9.380;2023-07-02T13:55:08;41.85;;;20.40;;
62463;SDS011;48512;48.552;9.380;2023-07-02T13:57:34;45.60;;;21.40;;
62463;SDS011;48512;48.552;9.380;2023-07-02T14:00:00;46.22;;;21.92;;
62463;SDS011;48512;48.552;9.380;2023-07-02T14:02:27;50.13;;;22.30;;
62463;SDS011;48512;48.552;9.380;2023-07-02T14:04:53;51.47;;;22.60;;
62463;SDS011;48512;48.552;9.380;2023-07-02T14:07:19;53.22;;;22.48;;
62463;SDS011;48512;48.552;9.380;2023-07-02T14:09:45;49.60;;;22.10;;
62463;SDS011;48512;48.552;9.380;2023-07-02T14:12:11;47.05;;;22.23;;
62463;SDS011;48512;48.552;9.380;2023-07-02T14:14:38;47.85;;;22.05;;
62463;SDS011;48512;48.552;9.380;2023-07-02T14:17:04;43.25;;;20.83;;
62463;SDS011;48512;48.552;9.380;2023-07-02T14:19:30;47.17;;;20.92;;
62463;SDS011;48512;48.552;9.380;2023-07-02T14:21:56;45.22;;;21.58;;
62463;SDS011;48512;48.552;9.380;2023-07-02T14:24:23;45.80;;;21.70;;
62463;SDS011;48512;48.552;9.380;2023-07-02T14:26:49;43.97;;;21.40;;
62463;SDS011;48512;48.552;9.380;2023-07-02T14:29:15;44.67;;;21.33;;
62463;SDS011;48512;48.552;9.380;2023-07-02T14:31:41;49.83;;;22.27;;
62463;SDS011;48512;48.552;9.380;2023-07-02T14:34:07;48.72;;;21.20;;
62463;SDS011;48512;48.552;9.380;2023-07-02T14:36:33;41.28;;;20.83;;
62463;SDS011;48512;48.552;9.380;2023-07-02T14:38:59;50.08;;;23.13;;